PWSweather.com
Personal Weather Stations
Station Observations
KTXPLANO60
Highlands Of Russell Park, Plano, TX 75025

Highlands Of Russell ParkPlano, TX 75025

Lat: 33.10431671, Lon: -96.75176239

Elevation: 761

Station Type: Davis Wireless VP2 Plus

http://www.planoweather.com

Latest ConditionsUpdated 4:40:01 AM CST Thursday, Nov 23, 2017
Currently Today's Max Today's Min Today's Average
Temperature 38.3°F3.5°C 39.6°F4.2°C 37.7°F3.2°C 38.5°F3.6°C
Dew Point 28.7°F-1.8°C 28.7°F-1.8°C 25.3°F-3.7°C 26.9°F-2.8°C
Winds 2.3 mph N3.7 kmh N 2.3 mph N3.7 kmh N - 1.6 mph 2.6 kmh
Wind Gusts 3.5 mph5.6 kmh 3.5 mph5.6 kmh - -
Humidity 68% 68% 57% 63%
Pressure 30.17 in1021.7 mb 30.23 in1023.7 mb 30.17 in1021.7 mb -
Hour Temp Dew Point Humidity Winds Wind Gusts Pressure Precip Precip Rate Daily Precip Total
04:40 AM 38.3°F3.5°C 28.7°F-1.8°C 68% 2.3 mph N3.7 kmh N 3.5 mph5.6 kmh 30.17 in1021.7 mb - 0.00 in0.0 mm 0.00 in0.0 mm
04:30 AM 38.4°F3.6°C 28.4°F-2.0°C 67% 2.3 mph N3.7 kmh N 2.3 mph3.7 kmh 30.17 in1021.7 mb - 0.00 in0.0 mm 0.00 in0.0 mm
04:20 AM 38.4°F3.6°C 28.0°F-2.2°C 66% 2.3 mph N3.7 kmh N 3.5 mph5.6 kmh 30.18 in1022.0 mb - 0.00 in0.0 mm 0.00 in0.0 mm
04:10 AM 38.5°F3.6°C 27.7°F-2.4°C 65% 1.2 mph N1.9 kmh N 2.3 mph3.7 kmh 30.18 in1022.0 mb - 0.00 in0.0 mm 0.00 in0.0 mm
04:00 AM 38.4°F3.6°C 27.7°F-2.4°C 65% 2.3 mph N3.7 kmh N 3.5 mph5.6 kmh 30.18 in1022.0 mb - 0.00 in0.0 mm 0.00 in0.0 mm
03:50 AM 38.2°F3.4°C 27.5°F-2.5°C 65% 2.3 mph N3.7 kmh N 3.5 mph5.6 kmh 30.18 in1022.0 mb - 0.00 in0.0 mm 0.00 in0.0 mm
03:40 AM 38.2°F3.4°C 27.5°F-2.5°C 65% 2.3 mph N3.7 kmh N 3.5 mph5.6 kmh 30.19 in1022.4 mb - 0.00 in0.0 mm 0.00 in0.0 mm
03:30 AM 38.3°F3.5°C 27.2°F-2.7°C 64% 2.3 mph N3.7 kmh N 3.5 mph5.6 kmh 30.19 in1022.4 mb - 0.00 in0.0 mm 0.00 in0.0 mm
03:20 AM 38.3°F3.5°C 27.2°F-2.7°C 64% 2.3 mph N3.7 kmh N 3.5 mph5.6 kmh 30.19 in1022.4 mb - 0.00 in0.0 mm 0.00 in0.0 mm
03:10 AM 38.3°F3.5°C 26.8°F-2.9°C 63% 2.3 mph N3.7 kmh N 3.5 mph5.6 kmh 30.19 in1022.4 mb - 0.00 in0.0 mm 0.00 in0.0 mm
03:00 AM 38.2°F3.4°C 26.7°F-2.9°C 63% 2.3 mph N3.7 kmh N 3.5 mph5.6 kmh 30.19 in1022.4 mb - 0.00 in0.0 mm 0.00 in0.0 mm
02:50 AM 38.0°F3.3°C 26.5°F-3.1°C 63% 2.3 mph N3.7 kmh N 3.5 mph5.6 kmh 30.19 in1022.4 mb - 0.00 in0.0 mm 0.00 in0.0 mm
02:40 AM 37.7°F3.2°C 27.0°F-2.8°C 65% 2.3 mph N3.7 kmh N 3.5 mph5.6 kmh 30.19 in1022.4 mb - 0.00 in0.0 mm 0.00 in0.0 mm
02:30 AM 37.7°F3.2°C 26.6°F-3.0°C 64% 2.3 mph N3.7 kmh N 3.5 mph5.6 kmh 30.19 in1022.4 mb - 0.00 in0.0 mm 0.00 in0.0 mm
02:20 AM 37.8°F3.2°C 27.1°F-2.7°C 65% 1.2 mph N1.9 kmh N 2.3 mph3.7 kmh 30.20 in1022.7 mb - 0.00 in0.0 mm 0.00 in0.0 mm
02:10 AM 38.1°F3.4°C 27.3°F-2.6°C 65% 1.2 mph N1.9 kmh N 2.3 mph3.7 kmh 30.20 in1022.7 mb - 0.00 in0.0 mm 0.00 in0.0 mm
02:00 AM 38.2°F3.4°C 27.8°F-2.3°C 66% 2.3 mph N3.7 kmh N 3.5 mph5.6 kmh 30.20 in1022.7 mb - 0.00 in0.0 mm 0.00 in0.0 mm
01:50 AM 38.2°F3.4°C 27.8°F-2.3°C 66% 1.2 mph N1.9 kmh N 1.2 mph1.9 kmh 30.20 in1022.7 mb - 0.00 in0.0 mm 0.00 in0.0 mm
01:40 AM 38.2°F3.4°C 25.9°F-3.4°C 61% Calm Calm -- 30.20 in1022.7 mb - 0.00 in0.0 mm 0.00 in0.0 mm
01:30 AM 38.5°F3.6°C 26.2°F-3.2°C 61% 1.2 mph N1.9 kmh N 2.3 mph3.7 kmh 30.21 in1023.0 mb - 0.00 in0.0 mm 0.00 in0.0 mm
01:20 AM 38.7°F3.7°C 26.8°F-2.9°C 62% Calm Calm -- 30.21 in1023.0 mb - 0.00 in0.0 mm 0.00 in0.0 mm
01:10 AM 39.0°F3.9°C 26.3°F-3.2°C 60% 1.2 mph N1.9 kmh N 2.3 mph3.7 kmh 30.21 in1023.0 mb - 0.00 in0.0 mm 0.00 in0.0 mm
01:00 AM 39.2°F4.0°C 25.6°F-3.6°C 58% Calm Calm 1.2 mph1.9 kmh 30.21 in1023.0 mb - 0.00 in0.0 mm 0.00 in0.0 mm
12:50 AM 39.3°F4.1°C 25.3°F-3.7°C 57% 1.2 mph N1.9 kmh N 2.3 mph3.7 kmh 30.21 in1023.0 mb - 0.00 in0.0 mm 0.00 in0.0 mm
12:40 AM 39.5°F4.2°C 25.9°F-3.4°C 58% 2.3 mph N3.7 kmh N 3.5 mph5.6 kmh 30.22 in1023.4 mb - 0.00 in0.0 mm 0.00 in0.0 mm
12:30 AM 39.6°F4.2°C 26.0°F-3.3°C 58% 2.3 mph N3.7 kmh N 3.5 mph5.6 kmh 30.22 in1023.4 mb - 0.00 in0.0 mm 0.00 in0.0 mm
12:20 AM 39.5°F4.2°C 25.9°F-3.4°C 58% Calm Calm -- 30.23 in1023.7 mb - 0.00 in0.0 mm 0.00 in0.0 mm
12:10 AM 39.3°F4.1°C 25.3°F-3.7°C 57% 2.3 mph N3.7 kmh N 3.5 mph5.6 kmh 30.22 in1023.4 mb - 0.00 in0.0 mm 0.00 in0.0 mm
12:00 AM 39.4°F4.1°C 26.7°F-2.9°C 60% Calm Calm 2.3 mph3.7 kmh 30.23 in1023.7 mb - 0.00 in0.0 mm 0.00 in0.0 mm